KPRX/PRX METAR and TAF weather

Enter ICAO airport designator
Station Type Date Time Source
KPRX METAR 2020/07/06 22:56 UTC NOAA

KPRX 062256Z AUTO 07005KT 10SM CLR 26/23 A2990 RMK AO2 RAE2159 SLP130 P0000 T02610233


Station Type Date Time Source
KPRX Decoded METAR 2020/07/06 22:56 UTC NOAA

Paris / Cox Field, TX, United States (KPRX) 33-38N 095-27W
Jul 06, 2020 - 06:56 PM EDT / 2020.07.06 2256 UTC
Wind: from the ENE (070 degrees) at 6 MPH (5 KT):0
Visibility: 10 mile(s):0
Sky conditions: clear
Precipitation last hour: A trace
Temperature: 79.0 F (26.1 C)
Dew Point: 73.9 F (23.3 C)
Relative Humidity: 84%
Pressure (altimeter): 29.9 in. Hg (1012 hPa)
ob: KPRX 062256Z AUTO 07005KT 10SM CLR 26/23 A2990 RMK AO2 RAE2159 SLP130 P0000 T02610233
cycle: 23

Station Type Date Time Source
KPRX TAF UTC NOAA

Error!

Example: see airport list